tititudorancea.com
Station Historical Data
Daily Summary for April 14, 2018 Units:  Metric    English   Both
« Previous Day
Next Day »
Daily Weekly Monthly Yearly Custom
  High: Low: Average:
Temperature: -17.8 °C 9.3 °C 10.7 °C
Dew Point: -17.8 °C 5.8 °C 7.2 °C
Humidity: Humidity % 58 % 79 %
Wind Speed: 0 km/h 0 km/h 15.1 km/h
Wind Gust: 0 km/h - -
Wind:- - WNW
Pressure: 0 hPa 992.4 hPa -
Precipitation: 11.43 mm    
Historical Graphs
 
 
Ararat weather Find more about Weather in Ararat, AU


 



 


Tabular Data for April 14, 2018
Time Temperature Dew Point Pressure Wind Wind Speed Wind Gust Humidity Rainfall Rate (Hourly)
-17.8 °C -17.8 °C 0 hPa Calm     Humidity % 0 mm
00:01 12.1 °C 7.8 °C 1000.9 hPa WNW 11.4 km/h 18.5 km/h 75 % 0 mm
00:02 12.1 °C 7.8 °C 1000.9 hPa WNW 11.4 km/h 18.5 km/h 75 % 0 mm
00:07 12.1 °C 7.8 °C 1000.9 hPa WNW 9.8 km/h 14.8 km/h 75 % 0 mm
00:12 11.9 °C 7.8 °C 1000.9 hPa WNW 11.7 km/h 16.7 km/h 76 % 0 mm
00:17 11.9 °C 7.8 °C 1001.2 hPa North 10.6 km/h 17.7 km/h 76 % 0 mm
00:22 11.9 °C 7.7 °C 1001.2 hPa NW 9.5 km/h 13 km/h 75 % 0 mm
00:27 12 °C 7.5 °C 1001.6 hPa NW 12.9 km/h 22.5 km/h 74 % 0 mm
00:32 12.1 °C 7.4 °C 1001.6 hPa WNW 12.6 km/h 18.5 km/h 73 % 0 mm
00:37 12.1 °C 7.4 °C 1001.6 hPa WNW 11.7 km/h 14.8 km/h 73 % 0 mm
00:42 11.9 °C 7.1 °C 1001.6 hPa WNW 14.8 km/h 24.1 km/h 72 % 0 mm
00:47 11.8 °C 6.7 °C 1001.2 hPa North 14.2 km/h 20.4 km/h 71 % 0 mm
00:52 11.7 °C 6.4 °C 1001.2 hPa WNW 17.9 km/h 22.5 km/h 70 % 0 mm
00:57 11.7 °C 6.2 °C 1001.2 hPa WNW 10.8 km/h 18.5 km/h 69 % 0 mm
01:02 11.7 °C 6.2 °C 1001.2 hPa NW 11.6 km/h 20.4 km/h 69 % 0 mm
01:07 11.6 °C 6.1 °C 1001.2 hPa NNW 12.7 km/h 18.5 km/h 69 % 0 mm
01:12 11.5 °C 6 °C 1001.6 hPa WNW 16.9 km/h 20.4 km/h 69 % 0 mm
01:17 11.6 °C 6.1 °C 1001.6 hPa WNW 17.1 km/h 27.8 km/h 69 % 0 mm
01:22 11.5 °C 6 °C 1001.2 hPa WNW 15.8 km/h 20.4 km/h 69 % 0 mm
01:27 11.5 °C 6 °C 1001.2 hPa WNW 15 km/h 22.2 km/h 69 % 0 mm
01:32 11.4 °C 5.9 °C 1001.2 hPa NW 11.9 km/h 16.7 km/h 69 % 0 mm
01:33 11.4 °C 5.9 °C 1001.2 hPa WNW 13.4 km/h 14.8 km/h 69 % 0 mm
01:38 11.4 °C 6.1 °C 1001.2 hPa North 10.6 km/h 14.8 km/h 70 % 0 mm
01:43 11.3 °C 6 °C 1001.2 hPa NW 14.2 km/h 16.7 km/h 70 % 0 mm
01:48 11.2 °C 6.1 °C 1001.2 hPa NW 9.8 km/h 14.8 km/h 71 % 0 mm
01:53 11.1 °C 6.3 °C 1001.2 hPa North 14.6 km/h 18.5 km/h 72 % 0 mm
01:58 11.1 °C 6.1 °C 1001.2 hPa NNW 13.8 km/h 20.4 km/h 71 % 0 mm
02:03 11.1 °C 6.1 °C 1001.2 hPa NW 12.6 km/h 16.7 km/h 71 % 0 mm
02:08 11.1 °C 6.2 °C 1001.2 hPa NW 11.4 km/h 20.4 km/h 72 % 0 mm
02:10 11.1 °C 6.2 °C 1001.2 hPa NW 9.8 km/h 13 km/h 72 % 0 mm
02:15 11 °C 6.2 °C 1001.2 hPa WNW 14 km/h 18.5 km/h 72 % 0 mm
02:20 10.9 °C 6.1 °C 1001.2 hPa WNW 16.6 km/h 24.1 km/h 72 % 0 mm
02:25 10.9 °C 6.1 °C 1000.9 hPa WNW 13 km/h 20.4 km/h 72 % 0 mm
02:30 10.9 °C 5.9 °C 1000.9 hPa NW 13.8 km/h 16.7 km/h 71 % 0 mm
02:35 10.9 °C 5.9 °C 1000.9 hPa NW 17.9 km/h 24.1 km/h 71 % 0 mm
02:40 10.9 °C 5.8 °C 1000.9 hPa NW 15.3 km/h 22.2 km/h 71 % 0 mm
02:45 10.9 °C 5.8 °C 1000.6 hPa NW 15.6 km/h 25.9 km/h 71 % 0 mm
02:50 10.8 °C 5.8 °C 1000.6 hPa WNW 18.8 km/h 22.2 km/h 71 % 0 mm
02:55 10.9 °C 6.1 °C 1000.6 hPa WNW 19.6 km/h 25.9 km/h 72 % 0 mm
03:00 10.9 °C 6.1 °C 1000.6 hPa WNW 15.4 km/h 29.6 km/h 72 % 0 mm
03:05 10.8 °C 6.2 °C 1000.6 hPa North 18.8 km/h 25.9 km/h 73 % 0 mm
03:10 10.8 °C 6.2 °C 1000.2 hPa WNW 14.2 km/h 20.4 km/h 73 % 0 mm
03:15 10.8 °C 6 °C 999.9 hPa WNW 17.2 km/h 31.5 km/h 72 % 0 mm
03:20 10.9 °C 6.1 °C 999.9 hPa WNW 12.9 km/h 19.3 km/h 72 % 0 mm
03:25 10.9 °C 5.8 °C 999.9 hPa NW 12.7 km/h 16.7 km/h 71 % 0 mm
03:30 10.9 °C 6.1 °C 999.9 hPa NW 10.8 km/h 16.7 km/h 72 % 0 mm
03:35 10.9 °C 6.1 °C 999.9 hPa NW 17.4 km/h 25.9 km/h 72 % 0 mm
03:40 10.9 °C 5.8 °C 999.9 hPa NW 14.8 km/h 20.4 km/h 71 % 0 mm
03:45 10.9 °C 5.8 °C 999.5 hPa NW 11.4 km/h 18.5 km/h 71 % 0 mm
03:50 10.8 °C 5.8 °C 999.5 hPa NW 12.7 km/h 18.5 km/h 71 % 0 mm
03:55 10.8 °C 5.9 °C 999.5 hPa North 6.8 km/h 11.1 km/h 72 % 0 mm
04:00 10.7 °C 6 °C 999.5 hPa NW 14.5 km/h 20.4 km/h 73 % 0 mm
04:05 10.7 °C 6.1 °C 999.5 hPa North 7.4 km/h 11.1 km/h 73 % 0 mm
04:10 10.7 °C 6.1 °C 999.5 hPa NW 5.3 km/h 7.4 km/h 73 % 0 mm
04:15 10.8 °C 6.1 °C 999.5 hPa NW 10.3 km/h 18.5 km/h 73 % 0 mm
04:20 10.9 °C 6.2 °C 999.5 hPa North 9.3 km/h 18.5 km/h 73 % 0 mm
04:25 10.9 °C 6.3 °C 999.2 hPa North 11.7 km/h 18.5 km/h 73 % 0 mm
04:30 10.9 °C 6.2 °C 998.9 hPa North 6.8 km/h 9.3 km/h 73 % 0 mm
04:35 10.8 °C 6.5 °C 999.2 hPa NNE 5.6 km/h 11.3 km/h 75 % 0 mm
04:40 10.5 °C 6.6 °C 998.9 hPa NNE 5 km/h 13 km/h 77 % 0 mm
04:45 10.2 °C 7.1 °C 998.5 hPa North 9 km/h 16.7 km/h 81 % 0 mm
04:50 10 °C 7.4 °C 998.5 hPa North 14 km/h 22.2 km/h 84 % 0 mm
04:55 9.8 °C 7.6 °C 998.9 hPa NNW 11.4 km/h 18.5 km/h 86 % 0 mm
05:00 9.7 °C 7.6 °C 998.5 hPa NNW 11.9 km/h 20.4 km/h 87 % 0 mm
05:05 9.6 °C 7.7 °C 998.5 hPa NNW 15.9 km/h 27.8 km/h 88 % 0 mm
05:10 9.6 °C 7.7 °C 998.5 hPa NNW 22.5 km/h 33.3 km/h 88 % 0 mm
05:15 9.6 °C 7.7 °C 998.2 hPa NNW 19.5 km/h 24.1 km/h 88 % 0 mm
05:20 9.6 °C 7.7 °C 998.2 hPa NNW 16.6 km/h 24.1 km/h 88 % 0 mm
05:25 9.7 °C 7.8 °C 998.2 hPa North 10.5 km/h 22.2 km/h 88 % 0 mm
05:30 9.7 °C 7.8 °C 998.2 hPa NNW 15.3 km/h 31.5 km/h 88 % 0 mm
05:35 9.7 °C 7.8 °C 998.2 hPa North 18.7 km/h 27.8 km/h 88 % 0 mm
05:40 9.7 °C 7.7 °C 997.9 hPa NW 19.3 km/h 29.6 km/h 87 % 0 mm
05:45 9.8 °C 7.7 °C 998.2 hPa North 17.7 km/h 29.6 km/h 87 % 0 mm
05:50 9.8 °C 7.7 °C 997.9 hPa NW 22 km/h 27.8 km/h 87 % 0 mm
05:55 9.8 °C 7.9 °C 997.9 hPa NW 19.5 km/h 20.9 km/h 88 % 0 mm
06:00 9.8 °C 7.9 °C 997.9 hPa NW 22.5 km/h 31.5 km/h 88 % 0 mm
06:05 9.8 °C 7.9 °C 997.9 hPa North 16.9 km/h 25.9 km/h 88 % 0 mm
06:10 9.8 °C 7.9 °C 997.5 hPa North 20.9 km/h 27.8 km/h 88 % 0 mm
06:15 9.9 °C 8 °C 997.5 hPa North 21.6 km/h 21.6 km/h 88 % 0 mm
06:20 9.9 °C 8.1 °C 997.2 hPa NNW 18 km/h 29.6 km/h 88 % 0 mm
06:25 9.9 °C 8.1 °C 997.2 hPa North 18 km/h 29.6 km/h 88 % 0 mm
06:30 10 °C 8.1 °C 997.2 hPa North 18.5 km/h 27.8 km/h 88 % 0 mm
06:36 10 °C 8.1 °C 996.8 hPa NNW 20.1 km/h 22.2 km/h 88 % 0 mm
06:41 10 °C 8.1 °C 996.8 hPa NNW 14.5 km/h 29.6 km/h 88 % 0 mm
06:46 9.9 °C 8.1 °C 996.8 hPa NNW 15 km/h 27.4 km/h 88 % 0 mm
06:51 9.9 °C 8.2 °C 997.2 hPa NW 12.4 km/h 22.2 km/h 89 % 0 mm
06:56 9.9 °C 8.2 °C 996.8 hPa NNW 14.8 km/h 31.5 km/h 89 % 0 mm
07:01 9.9 °C 8.2 °C 996.8 hPa NNW 16.3 km/h 22.2 km/h 89 % 0 mm
07:06 9.9 °C 8.1 °C 996.5 hPa North 16.9 km/h 27.8 km/h 88 % 0 mm
07:11 10 °C 8.1 °C 996.5 hPa North 17.1 km/h 32.2 km/h 88 % 0 mm
07:16 10.1 °C 8 °C 996.2 hPa NW 19 km/h 31.5 km/h 87 % 0 mm
07:19 10.1 °C 7.9 °C 996.2 hPa North 21.9 km/h 38.9 km/h 86 % 0 mm
07:24 10.2 °C 7.9 °C 995.8 hPa North 22.2 km/h 40.7 km/h 86 % 0 mm
07:29 10.2 °C 7.8 °C 995.8 hPa North 16.3 km/h 24.1 km/h 85 % 0 mm
07:34 10.2 °C 7.8 °C 995.8 hPa NW 23.3 km/h 38.9 km/h 85 % 0 mm
07:39 10.2 °C 7.8 °C 995.5 hPa NNW 17.5 km/h 24.1 km/h 85 % 0 mm
07:44 10.3 °C 7.9 °C 995.5 hPa North 20.4 km/h 31.5 km/h 85 % 0 mm
07:49 10.3 °C 7.9 °C 995.5 hPa NNW 17.5 km/h 31.5 km/h 85 % 0 mm
07:54 10.3 °C 7.9 °C 995.5 hPa NNW 20.8 km/h 31.5 km/h 85 % 0 mm
07:59 10.3 °C 7.9 °C 995.5 hPa North 15.8 km/h 31.5 km/h 85 % 0 mm
08:04 10.1 °C 7.7 °C 995.5 hPa NNW 18.2 km/h 31.5 km/h 85 % 0 mm
08:09 10 °C 7.8 °C 995.1 hPa NW 16.1 km/h 42.6 km/h 86 % 0 mm
08:14 9.9 °C 7.7 °C 995.1 hPa North 25.9 km/h 37 km/h 86 % 0 mm
08:19 10 °C 7.8 °C 995.5 hPa NNW 24.1 km/h 37 km/h 86 % 0 mm
08:24 10.1 °C 7.7 °C 995.1 hPa North 22 km/h 37 km/h 85 % 0 mm
08:29 10.2 °C 7.8 °C 995.5 hPa NNW 19.6 km/h 40.7 km/h 85 % 0 mm
08:34 10.3 °C 7.7 °C 995.1 hPa NW 27.7 km/h 38.9 km/h 84 % 0 mm
08:39 10.4 °C 7.8 °C 995.1 hPa NW 17.4 km/h 31.5 km/h 84 % 0 mm
08:44 10.4 °C 7.7 °C 994.8 hPa NNW 42.6 km/h 42.6 km/h 83 % 0 mm
08:49 10.4 °C 7.7 °C 994.8 hPa NW 16.9 km/h 48.1 km/h 83 % 0 mm
08:54 10.5 °C 7.7 °C 994.8 hPa NNW 19.8 km/h 38.9 km/h 83 % 0 mm
08:59 10.6 °C 7.8 °C 994.8 hPa NW 19.6 km/h 38.9 km/h 83 % 0 mm
09:04 10.6 °C 7.8 °C 994.8 hPa North 21.9 km/h 25.7 km/h 83 % 0 mm
09:09 10.5 °C 7.9 °C 994.8 hPa NNW 21.9 km/h 33.3 km/h 84 % 0 mm
09:14 10.5 °C 7.9 °C 994.8 hPa North 26.4 km/h 37 km/h 84 % 0 mm
09:19 10.6 °C 8.1 °C 994.8 hPa NNW 23.7 km/h 31.5 km/h 85 % 0 mm
09:24 10.6 °C 8.2 °C 994.8 hPa NW 18.7 km/h 31.5 km/h 85 % 0 mm
09:29 10.5 °C 8.3 °C 994.8 hPa North 19.2 km/h 27.8 km/h 86 % 0 mm
09:34 10.3 °C 8.4 °C 994.8 hPa NNW 21.2 km/h 35.2 km/h 88 % 0.51 mm
09:39 10.2 °C 8.4 °C 994.5 hPa NW 20 km/h 24.1 km/h 89 % 0.76 mm
09:44 10.1 °C 8.5 °C 993.8 hPa NNW 20.1 km/h 27.8 km/h 90 % 1.27 mm
09:49 10.1 °C 8.7 °C 994.1 hPa NNW 16.4 km/h 42.6 km/h 91 % 1.27 mm
09:55 10.1 °C 8.7 °C 994.1 hPa NNW 18.8 km/h 33.3 km/h 91 % 1.27 mm
10:00 10.1 °C 8.7 °C 993.8 hPa North 22 km/h 42.6 km/h 91 % 1.27 mm
10:05 10.2 °C 8.8 °C 993.8 hPa NNW 15.3 km/h 35.2 km/h 91 % 1.52 mm
10:10 10.2 °C 8.8 °C 993.5 hPa NW 24.9 km/h 38.9 km/h 91 % 2.03 mm
10:15 10.3 °C 8.9 °C 993.8 hPa North 24.5 km/h 37 km/h 91 % 2.29 mm
10:20 10.3 °C 9.1 °C 992.4 hPa NW 24.9 km/h 42.6 km/h 92 % 2.54 mm
10:25 10.4 °C 9.2 °C 993.5 hPa NNW 16.4 km/h 29 km/h 92 % 2.79 mm
10:30 10.4 °C 9.2 °C 993.5 hPa North 26.2 km/h 37 km/h 92 % 2.79 mm
10:35 10.6 °C 9.3 °C 993.5 hPa NNW 19.2 km/h 31.5 km/h 92 % 3.05 mm
10:40 10.6 °C 9.4 °C 993.8 hPa NW 20.6 km/h 35.2 km/h 92 % 3.05 mm
10:45 10.7 °C 9.4 °C 994.1 hPa North 21.7 km/h 33.3 km/h 92 % 2.79 mm
10:50 10.7 °C 9.5 °C 994.1 hPa NNW 11.7 km/h 16.7 km/h 92 % 3.3 mm
10:55 10.8 °C 9.7 °C 994.1 hPa NW 14.5 km/h 20.9 km/h 93 % 3.56 mm
11:00 10.9 °C 9.8 °C 994.1 hPa North 24.3 km/h 32.2 km/h 93 % 3.81 mm
11:05 10.9 °C 9.8 °C 995.1 hPa NW 30.3 km/h 35.2 km/h 93 % 3.81 mm
11:10 11.1 °C 9.9 °C 994.5 hPa NNW 21.9 km/h 29.6 km/h 93 % 3.81 mm
11:15 11.2 °C 10.1 °C 994.8 hPa North 19 km/h 31.5 km/h 93 % 3.56 mm
11:20 11.3 °C 10.1 °C 995.5 hPa NW 23.8 km/h 33.3 km/h 92 % 3.81 mm
11:25 11.2 °C 9.8 °C 995.5 hPa WSW 24 km/h 37 km/h 91 % 4.57 mm
11:30 11.2 °C 9.6 °C 995.8 hPa North 17.2 km/h 22.2 km/h 90 % 4.57 mm
11:34 11.1 °C 9.5 °C 995.8 hPa North 14.6 km/h 18.5 km/h 90 % 4.32 mm
11:39 10.9 °C 9.3 °C 995.1 hPa SW 7.2 km/h 11.1 km/h 90 % 4.32 mm
11:41 10.9 °C 9.3 °C 994.8 hPa SW 11.3 km/h 14.8 km/h 90 % 4.06 mm
11:46 11.2 °C 9.6 °C 994.8 hPa SW 10.8 km/h 18.5 km/h 90 % 3.81 mm
11:51 11.2 °C 9.5 °C 995.1 hPa West 16.4 km/h 31.5 km/h 89 % 3.3 mm
11:56 11.1 °C 9 °C 995.1 hPa West 16.9 km/h 20.4 km/h 87 % 3.3 mm
12:00 11.1 °C 9 °C 995.1 hPa West 15.1 km/h 18.5 km/h 87 % 3.05 mm
12:05 11.1 °C 9.2 °C 995.1 hPa North 13.7 km/h 18.5 km/h 88 % 2.54 mm
12:10 11.3 °C 8.9 °C 995.1 hPa North 15.9 km/h 24.1 km/h 85 % 2.29 mm
12:15 11.6 °C 9.3 °C 995.5 hPa WNW 9.5 km/h 16.1 km/h 86 % 2.03 mm
12:20 11.8 °C 9.2 °C 995.5 hPa NW 15 km/h 22.2 km/h 84 % 1.27 mm
12:25 12.4 °C 8.8 °C 995.1 hPa WNW 15.9 km/h 22.2 km/h 79 % 0.51 mm
12:30 12.9 °C 8.4 °C 995.1 hPa WNW 14.2 km/h 18.5 km/h 74 % 0.51 mm
12:35 13.4 °C 8.7 °C 995.1 hPa WNW 21.6 km/h 25.9 km/h 73 % 0.25 mm
12:40 13.3 °C 7.9 °C 995.1 hPa WSW 25.9 km/h 31.5 km/h 70 % 0.25 mm
12:45 13.2 °C 7.6 °C 995.1 hPa West 11.1 km/h 18.5 km/h 69 % 0 mm
12:50 13.4 °C 7.8 °C 995.1 hPa WSW 19.3 km/h 27.8 km/h 69 % 0 mm
12:55 13.5 °C 7.7 °C 995.1 hPa WNW 17.9 km/h 20.9 km/h 68 % 0 mm
13:00 13.2 °C 7.4 °C 995.5 hPa WSW 28 km/h 46.3 km/h 68 % 0 mm
13:05 12.1 °C 7.6 °C 995.5 hPa West 22.9 km/h 31.5 km/h 74 % 0.25 mm
13:10 12.1 °C 7.8 °C 995.5 hPa West 15 km/h 19.3 km/h 75 % 0.25 mm
13:15 12.2 °C 7.7 °C 995.5 hPa West 16.9 km/h 20.4 km/h 74 % 0.25 mm
13:20 12.8 °C 7.7 °C 995.1 hPa West 23.2 km/h 25.9 km/h 71 % 0.25 mm
13:25 13.3 °C 7.8 °C 995.1 hPa West 15.9 km/h 24.1 km/h 69 % 0.25 mm
13:30 13.7 °C 6.6 °C 995.1 hPa WNW 22.2 km/h 38.9 km/h 62 % 0.25 mm
13:35 14.2 °C 6.8 °C 995.1 hPa West 21.4 km/h 38.9 km/h 61 % 0.25 mm
13:40 14.1 °C 5.9 °C 995.1 hPa West 23.7 km/h 31.5 km/h 58 % 0.25 mm
13:45 13.9 °C 6.5 °C 995.8 hPa West 38.9 km/h 48.1 km/h 61 % 0.25 mm
13:50 12.1 °C 6.6 °C 995.8 hPa North 25.6 km/h 33.3 km/h 69 % 0.25 mm
13:55 10.9 °C 6.2 °C 995.8 hPa SSW 23.2 km/h 33.3 km/h 73 % 0.25 mm
14:00 10.7 °C 6.4 °C 995.8 hPa WSW 19.6 km/h 29.6 km/h 75 % 0.25 mm
14:05 10.8 °C 6.9 °C 995.8 hPa WSW 9 km/h 11.3 km/h 77 % 0.25 mm
14:10 10.9 °C 6.8 °C 996.2 hPa West 20.8 km/h 25.9 km/h 76 % 0.25 mm
14:15 11 °C 6.9 °C 996.5 hPa SW 14.8 km/h 18.5 km/h 76 % 0.25 mm
14:20 10.7 °C 7.1 °C 996.5 hPa WSW 31.2 km/h 42.6 km/h 78 % 0.51 mm
14:25 10.5 °C 7.6 °C 996.5 hPa West 17.1 km/h 25.9 km/h 82 % 0.51 mm
14:30 10.3 °C 7.7 °C 996.8 hPa North 14.5 km/h 22.2 km/h 84 % 0.76 mm
14:35 10.2 °C 7.6 °C 996.8 hPa West 22.2 km/h 27.8 km/h 84 % 1.02 mm
14:40 9.9 °C 7.3 °C 996.8 hPa North 20 km/h 27.8 km/h 84 % 1.27 mm
14:45 9.7 °C 7.1 °C 997.2 hPa WNW 20.1 km/h 29.6 km/h 84 % 1.52 mm
14:50 9.4 °C 7.1 °C 996.8 hPa North 17.4 km/h 22.5 km/h 85 % 1.52 mm
14:55 9.6 °C 7.1 °C 996.8 hPa WNW 12.4 km/h 20.4 km/h 84 % 1.78 mm
15:00 9.8 °C 7.4 °C 996.8 hPa NW 15.9 km/h 22.2 km/h 85 % 1.78 mm
15:05 10.2 °C 7.4 °C 996.8 hPa WNW 9.8 km/h 13 km/h 83 % 1.52 mm
15:10 10.5 °C 7.4 °C 996.8 hPa West 21.7 km/h 22.5 km/h 81 % 1.52 mm
15:15 10.8 °C 7.2 °C 996.8 hPa WNW 15.3 km/h 22.2 km/h 78 % 1.52 mm
15:16 10.9 °C 7 °C 996.8 hPa WNW 19.3 km/h 24.1 km/h 77 % 1.52 mm
15:21 11.1 °C 7 °C 996.8 hPa West 13.2 km/h 18.5 km/h 76 % 1.27 mm
15:26 11.2 °C 7.2 °C 996.8 hPa WNW 13.2 km/h 20.4 km/h 76 % 1.02 mm
15:31 11.6 °C 6.7 °C 996.8 hPa West 17.2 km/h 25.7 km/h 72 % 1.02 mm
15:36 12 °C 6.7 °C 996.8 hPa WNW 17.4 km/h 24.1 km/h 70 % 0.51 mm
15:41 12.3 °C 7.2 °C 997.2 hPa WNW 15.3 km/h 20.4 km/h 71 % 0.51 mm
15:46 12.8 °C 7.2 °C 996.8 hPa WNW 15.9 km/h 25.7 km/h 69 % 0.25 mm
15:51 12.9 °C 7.1 °C 997.2 hPa West 16.6 km/h 25.9 km/h 68 % 0.25 mm
15:56 12.9 °C 7.1 °C 997.2 hPa WNW 18 km/h 25.9 km/h 68 % 0 mm
16:01 12.7 °C 7.1 °C 997.2 hPa West 14.3 km/h 18.5 km/h 69 % 0 mm
16:06 12.6 °C 7.2 °C 997.2 hPa West 11.3 km/h 18.5 km/h 70 % 0 mm
16:11 12.6 °C 7 °C 997.5 hPa WSW 12.9 km/h 17.7 km/h 69 % 0 mm
16:16 12.3 °C 7.2 °C 997.9 hPa SW 19.3 km/h 31.5 km/h 71 % 0 mm
16:21 11.3 °C 7.4 °C 998.2 hPa SSW 14.6 km/h 24.1 km/h 77 % 0 mm
16:26 10.4 °C 7.3 °C 998.5 hPa WSW 30.9 km/h 44.4 km/h 81 % 0.25 mm
16:31 9.8 °C 6.8 °C 998.2 hPa North 22.2 km/h 35.2 km/h 82 % 0.51 mm
16:36 9.7 °C 6.7 °C 998.2 hPa WSW 24.8 km/h 31.5 km/h 82 % 0.51 mm
16:41 9.7 °C 6.6 °C 998.5 hPa WSW 29.5 km/h 38.9 km/h 81 % 0.76 mm
16:46 9.7 °C 6.6 °C 998.5 hPa West 23.8 km/h 40.7 km/h 81 % 1.02 mm
16:51 9.8 °C 6.4 °C 998.5 hPa WSW 12.1 km/h 18.5 km/h 79 % 1.02 mm
16:56 9.9 °C 6.7 °C 998.5 hPa WSW 9 km/h 18.5 km/h 80 % 1.02 mm
17:01 10.1 °C 6.6 °C 998.5 hPa SW 13.4 km/h 19.3 km/h 79 % 1.02 mm
17:06 10.2 °C 6.4 °C 998.5 hPa West 15.9 km/h 22.2 km/h 77 % 1.02 mm
17:11 10.3 °C 6.4 °C 998.9 hPa WSW 10.6 km/h 14.8 km/h 77 % 1.02 mm
17:16 10.3 °C 6.6 °C 998.9 hPa WSW 11.6 km/h 16.7 km/h 78 % 1.02 mm
17:21 10.3 °C 6.5 °C 998.9 hPa WSW 10.6 km/h 16.7 km/h 77 % 1.02 mm
17:26 10.5 °C 6.6 °C 999.2 hPa WSW 11.9 km/h 18.5 km/h 77 % 0.76 mm
17:31 10.7 °C 6.8 °C 999.2 hPa WSW 13.5 km/h 18.5 km/h 77 % 0.51 mm
17:36 10.7 °C 6.8 °C 999.2 hPa SW 12.7 km/h 19.3 km/h 77 % 0.51 mm
17:41 10.5 °C 6.8 °C 999.5 hPa SSW 14.8 km/h 18.5 km/h 78 % 0.25 mm
17:46 10.1 °C 6.4 °C 999.9 hPa SSW 17.1 km/h 29.6 km/h 78 % 0 mm
17:51 9.6 °C 6.3 °C 999.9 hPa North 18.2 km/h 25.9 km/h 80 % 0.25 mm
17:56 9.3 °C 6.4 °C 999.9 hPa WSW 7.9 km/h 11.1 km/h 82 % 0.25 mm
18:01 9.3 °C 6.6 °C 999.5 hPa North 9.5 km/h 18.5 km/h 83 % 0.25 mm
18:06 9.4 °C 6.7 °C 999.9 hPa North 10 km/h 13 km/h 83 % 0.25 mm
18:11 9.4 °C 6.7 °C 1000.2 hPa West 8.7 km/h 11.3 km/h 83 % 0.25 mm
18:16 9.7 °C 6.8 °C 1000.6 hPa West 11.3 km/h 18.5 km/h 82 % 0.25 mm
18:21 9.9 °C 6.8 °C 1000.6 hPa West 17.5 km/h 24.1 km/h 81 % 0.25 mm
18:26 9.9 °C 6.6 °C 1000.2 hPa WSW 13.4 km/h 18.5 km/h 80 % 0.25 mm
18:31 9.9 °C 6.7 °C 1000.6 hPa West 6.9 km/h 11.1 km/h 80 % 0.25 mm
18:36 9.9 °C 6.7 °C 1000.6 hPa West 15.8 km/h 20.4 km/h 80 % 0.25 mm
18:41 10 °C 6.5 °C 1000.6 hPa West 13.7 km/h 22.5 km/h 79 % 0.25 mm
18:46 9.9 °C 6.3 °C 1000.9 hPa West 16.9 km/h 20.4 km/h 78 % 0.25 mm
18:51 9.9 °C 6.4 °C 1000.9 hPa North 10.1 km/h 13 km/h 79 % 0 mm
18:56 9.9 °C 6.4 °C 1000.9 hPa West 6.4 km/h 11.1 km/h 79 % 0 mm
19:01 9.8 °C 6.4 °C 1000.9 hPa West 6.6 km/h 7.4 km/h 79 % 0 mm
19:06 9.8 °C 6.3 °C 1000.9 hPa West 4.5 km/h 5.6 km/h 79 % 0 mm
19:11 9.8 °C 6.4 °C 1000.9 hPa West 8.4 km/h 13 km/h 79 % 0 mm
19:16 9.9 °C 6.3 °C 1000.9 hPa West 5.8 km/h 6.4 km/h 78 % 0 mm
19:21 9.9 °C 6.3 °C 1000.9 hPa Calm     78 % 0 mm
19:26 9.9 °C 6.2 °C 1000.9 hPa Calm     78 % 0 mm
19:31 9.9 °C 6.2 °C 1000.9 hPa West 4.7 km/h 6.4 km/h 78 % 0 mm
19:36 9.9 °C 6.2 °C 1000.9 hPa West 1.8 km/h 3.7 km/h 78 % 0 mm
19:41 10.1 °C 6.2 °C 1001.2 hPa West 5.1 km/h 9.3 km/h 77 % 0 mm
19:46 10.2 °C 6.2 °C 1000.9 hPa West 3.1 km/h 5.6 km/h 76 % 0 mm
19:51 10.3 °C 6.1 °C 1001.2 hPa West 3.5 km/h 5.6 km/h 75 % 0 mm
19:56 10.4 °C 6.2 °C 1001.2 hPa West 2.4 km/h 4.8 km/h 75 % 0 mm
20:01 10.4 °C 6.2 °C 1001.2 hPa West 3.1 km/h 5.6 km/h 75 % 0 mm
20:06 10.5 °C 6.1 °C 1001.2 hPa WNW 7.9 km/h 11.1 km/h 74 % 0 mm
20:11 10.7 °C 6.1 °C 1001.2 hPa WNW 3.7 km/h 5.6 km/h 73 % 0 mm
20:16 10.8 °C 6.1 °C 1001.2 hPa WNW 4 km/h 5.6 km/h 73 % 0 mm
20:21 10.9 °C 6.1 °C 1001.2 hPa WNW 4.3 km/h 9.3 km/h 72 % 0 mm
20:26 10.9 °C 6.1 °C 1001.6 hPa WNW 7.4 km/h 11.1 km/h 72 % 0 mm
20:31 11.1 °C 6.1 °C 1001.6 hPa WNW 10.1 km/h 11.1 km/h 71 % 0 mm
20:36 11.3 °C 6.2 °C 1001.6 hPa WNW 9.2 km/h 14.8 km/h 71 % 0 mm
20:41 11.3 °C 6.2 °C 1001.6 hPa WNW 6.9 km/h 9.3 km/h 71 % 0 mm
20:46 11.3 °C 6.2 °C 1001.6 hPa WNW 5.6 km/h 8 km/h 71 % 0 mm
20:51 11.2 °C 6.6 °C 1001.9 hPa WNW 9.3 km/h 16.7 km/h 73 % 0 mm
20:56 11.2 °C 6.8 °C 1001.6 hPa NW 11.3 km/h 14.8 km/h 74 % 0 mm
21:01 11.2 °C 6.9 °C 1001.9 hPa NW 11.1 km/h 13 km/h 75 % 0 mm
21:06 11.1 °C 6.8 °C 1001.9 hPa NW 8 km/h 11.1 km/h 75 % 0 mm
21:11 11.1 °C 7 °C 1001.9 hPa WNW 10.9 km/h 18.5 km/h 76 % 0 mm
21:16 11 °C 7.1 °C 1001.9 hPa North 8.5 km/h 17.7 km/h 77 % 0 mm
21:21 11 °C 7.1 °C 1001.9 hPa NW 8.2 km/h 14.8 km/h 77 % 0 mm
21:26 11.1 °C 7.2 °C 1002.3 hPa WNW 9.8 km/h 18.5 km/h 77 % 0 mm
21:31 11.1 °C 7.2 °C 1001.9 hPa North 9.7 km/h 13 km/h 77 % 0 mm
21:36 11.2 °C 7.3 °C 1001.9 hPa NW 12.4 km/h 18.5 km/h 77 % 0 mm
21:41 11.3 °C 7.2 °C 1001.6 hPa NW 10.6 km/h 14.8 km/h 76 % 0 mm
21:46 11.3 °C 7.3 °C 1001.6 hPa NW 11.4 km/h 20.4 km/h 76 % 0 mm
21:51 11.3 °C 7.3 °C 1001.6 hPa NW 14.8 km/h 18.5 km/h 76 % 0 mm
21:56 11.3 °C 7.3 °C 1001.6 hPa NW 15.6 km/h 22.2 km/h 76 % 0 mm
22:01 11.3 °C 7.4 °C 1001.6 hPa WNW 14.6 km/h 19.3 km/h 77 % 0 mm
22:06 11.2 °C 7.5 °C 1001.6 hPa WNW 11.3 km/h 16.7 km/h 78 % 0 mm
22:11 11.1 °C 7.4 °C 1001.6 hPa WNW 15.6 km/h 18.5 km/h 78 % 0 mm
22:16 11.1 °C 7.4 °C 1001.9 hPa WNW 16.3 km/h 18.5 km/h 78 % 0 mm
22:21 11.1 °C 7.6 °C 1001.9 hPa NW 13.8 km/h 18.5 km/h 79 % 0 mm
22:26 10.9 °C 7.8 °C 1001.6 hPa NW 12.4 km/h 18.5 km/h 81 % 0 mm
22:31 10.8 °C 7.7 °C 1001.6 hPa NW 14.6 km/h 20.4 km/h 81 % 0 mm
22:36 10.9 °C 7.8 °C 1001.6 hPa WNW 14.5 km/h 22.5 km/h 81 % 0 mm
22:41 11 °C 7.9 °C 1001.9 hPa NW 12.7 km/h 18.5 km/h 81 % 0 mm
22:46 11.1 °C 7.9 °C 1001.9 hPa NW 19 km/h 29.6 km/h 81 % 0 mm
22:51 11.1 °C 7.7 °C 1001.6 hPa NW 10.6 km/h 18.5 km/h 80 % 0 mm
22:56 11.1 °C 7.9 °C 1001.6 hPa NW 11.3 km/h 18.5 km/h 81 % 0 mm
23:01 11.1 °C 7.8 °C 1001.6 hPa WNW 14.8 km/h 18.5 km/h 80 % 0 mm
23:06 11.2 °C 7.8 °C 1001.6 hPa NW 14.3 km/h 20.4 km/h 80 % 0 mm
23:11 11.2 °C 7.8 °C 1001.6 hPa NW 12.6 km/h 14.8 km/h 80 % 0 mm
23:16 11.1 °C 7.8 °C 1001.6 hPa NW 12.9 km/h 16.7 km/h 80 % 0 mm
23:21 11.1 °C 7.9 °C 1001.6 hPa WNW 13 km/h 18.5 km/h 81 % 0 mm
23:26 11.1 °C 7.9 °C 1001.2 hPa WNW 15 km/h 18.5 km/h 81 % 0 mm
23:31 11.2 °C 8 °C 1001.2 hPa WNW 10.5 km/h 13 km/h 81 % 0 mm
23:36 11.2 °C 8 °C 1001.2 hPa WNW 7.6 km/h 16.7 km/h 81 % 0 mm
23:41 11.3 °C 7.9 °C 1001.2 hPa WNW 10.5 km/h 20.4 km/h 80 % 0 mm
23:46 11.3 °C 8 °C 1001.2 hPa NW 11.3 km/h 16.7 km/h 80 % 0 mm
23:51 11.3 °C 8.1 °C 1001.6 hPa North 16.3 km/h 27.8 km/h 81 % 0 mm
23:56 11.2 °C 8.2 °C 1001.6 hPa West 18.5 km/h 24.1 km/h 82 % 0.25 mm
Ararat Weather
Compliments of Weather Underground - 2.5 mb
Click here to send mail.


ABOUT

Live weather data from Ararat, Victoria, Australia, 3377
Data uploaded from Cumulus every 5 minutes to Weather Underground.
This site then downloads the raw data for formatting and display.
Metric and imperial data can be displayed. Graphs and historical data available.
Includes Sun and Moon times and rain image live from BOM.

Check out Ararat Weather on Facebook, Twitter and Google +

Help support ongoing costs by checking out the ads





Follow @AraratWeather